Time;durP1;ratioP1;P1;durP2;ratioP2;P2;SDS_P1;SDS_P2;PMS_P1;PMS_P2;Temp;Humidity;BMP_temperature;BMP_pressure;BME280_temperature;BME280_humidity;BME280_pressure;Samples;Min_cycle;Max_cycle;Signal;HPM_P1;HPM_P2
2024/01/25 00:00:07;;;;;;;32.63;4.13;;;;;;;;;;5067264;27;100196;-75
2024/01/25 00:02:33;;;;;;;21.85;3.67;;;;;;;;;;5061583;27;100372;-75
2024/01/25 00:05:00;;;;;;;18.40;4.20;;;;;;;;;;5057473;27;98583;-75
2024/01/25 00:07:27;;;;;;;15.80;4.53;;;;;;;;;;5061715;27;99435;-75
2024/01/25 00:09:53;;;;;;;27.95;5.30;;;;;;;;;;5065663;27;100010;-75
2024/01/25 00:12:20;;;;;;;20.13;4.20;;;;;;;;;;5062691;27;98453;-75
2024/01/25 00:14:46;;;;;;;31.20;5.18;;;;;;;;;;5062047;27;99273;-76
2024/01/25 00:17:12;;;;;;;35.72;4.53;;;;;;;;;;5062423;27;99424;-76
2024/01/25 00:19:40;;;;;;;18.38;4.25;;;;;;;;;;5061227;27;98241;-75
2024/01/25 00:22:07;;;;;;;22.23;4.45;;;;;;;;;;5066461;27;99286;-75
2024/01/25 00:24:34;;;;;;;23.85;3.67;;;;;;;;;;5062230;27;100198;-74
2024/01/25 00:27:00;;;;;;;22.23;5.00;;;;;;;;;;5061705;27;99437;-75
2024/01/25 00:29:27;;;;;;;24.42;4.57;;;;;;;;;;5063937;27;100045;-75
2024/01/25 00:31:53;;;;;;;15.43;3.88;;;;;;;;;;5063543;27;98322;-74
2024/01/25 00:34:20;;;;;;;21.23;4.25;;;;;;;;;;5062435;27;99129;-75
2024/01/25 00:36:47;;;;;;;19.65;4.07;;;;;;;;;;5064034;27;99912;-75
2024/01/25 00:39:13;;;;;;;22.42;5.28;;;;;;;;;;5060667;27;99809;-75
2024/01/25 00:41:42;;;;;;;26.75;5.25;;;;;;;;;;5062381;27;99416;-76
2024/01/25 00:44:09;;;;;;;24.33;4.47;;;;;;;;;;5065447;27;99906;-75
2024/01/25 00:46:35;;;;;;;25.75;4.57;;;;;;;;;;5062018;27;99507;-75
2024/01/25 00:49:02;;;;;;;21.98;4.75;;;;;;;;;;5061904;27;100205;-75
2024/01/25 00:51:28;;;;;;;25.75;4.72;;;;;;;;;;5061525;27;98221;-76
2024/01/25 00:53:55;;;;;;;22.00;4.85;;;;;;;;;;5060249;27;99754;-76
2024/01/25 00:56:22;;;;;;;17.50;4.43;;;;;;;;;;5062369;27;100081;-76
2024/01/25 00:58:48;;;;;;;28.48;4.82;;;;;;;;;;5062800;27;99752;-77
2024/01/25 01:01:15;;;;;;;23.92;5.18;;;;;;;;;;5061473;27;99582;-75
2024/01/25 01:03:42;;;;;;;26.77;4.97;;;;;;;;;;5063588;27;99936;-76
2024/01/25 01:06:09;;;;;;;20.98;3.88;;;;;;;;;;5065062;27;98576;-76
2024/01/25 01:08:36;;;;;;;27.00;5.75;;;;;;;;;;5061063;27;99846;-75
2024/01/25 01:11:02;;;;;;;28.92;4.35;;;;;;;;;;5061896;27;100423;-75
2024/01/25 01:13:29;;;;;;;32.88;4.88;;;;;;;;;;5062129;27;99500;-76
2024/01/25 01:15:55;;;;;;;26.38;5.18;;;;;;;;;;5061644;27;100030;-75
2024/01/25 01:18:22;;;;;;;25.77;4.85;;;;;;;;;;5062298;27;98667;-76
2024/01/25 01:20:48;;;;;;;18.48;4.20;;;;;;;;;;5064094;27;99546;-76
2024/01/25 01:23:15;;;;;;;16.70;3.88;;;;;;;;;;5063580;27;99921;-76
2024/01/25 01:25:41;;;;;;;19.95;4.65;;;;;;;;;;5063754;27;99972;-76
2024/01/25 01:28:08;;;;;;;22.98;6.10;;;;;;;;;;5061421;27;99439;-76
2024/01/25 01:30:34;;;;;;;29.73;4.43;;;;;;;;;;5062117;27;99106;-76
2024/01/25 01:33:01;;;;;;;32.20;5.55;;;;;;;;;;5060143;27;98869;-76
2024/01/25 01:35:27;;;;;;;24.67;4.45;;;;;;;;;;5061940;27;98959;-76
2024/01/25 01:37:54;;;;;;;29.15;5.22;;;;;;;;;;5060743;27;99526;-76
2024/01/25 01:40:20;;;;;;;19.10;5.38;;;;;;;;;;5060851;27;98545;-76
2024/01/25 01:42:47;;;;;;;19.50;4.05;;;;;;;;;;5060803;27;100205;-76
2024/01/25 01:45:13;;;;;;;29.77;5.03;;;;;;;;;;5062411;27;98572;-75
2024/01/25 01:47:40;;;;;;;26.73;5.32;;;;;;;;;;5064321;27;99496;-76
2024/01/25 01:50:08;;;;;;;25.83;5.82;;;;;;;;;;5061082;27;98823;-75
2024/01/25 01:52:36;;;;;;;25.50;4.93;;;;;;;;;;5062861;27;100751;-76
2024/01/25 01:55:02;;;;;;;22.98;5.50;;;;;;;;;;5059937;27;98976;-76
2024/01/25 01:57:29;;;;;;;31.88;5.95;;;;;;;;;;5060728;27;100090;-76
2024/01/25 01:59:57;;;;;;;28.77;5.75;;;;;;;;;;5062186;27;99994;-76
2024/01/25 02:02:23;;;;;;;33.80;5.15;;;;;;;;;;5063373;27;98971;-75
2024/01/25 02:04:50;;;;;;;23.58;4.47;;;;;;;;;;5060229;27;99040;-76
2024/01/25 02:07:17;;;;;;;36.17;6.30;;;;;;;;;;5061661;27;98955;-76
2024/01/25 02:09:43;;;;;;;40.50;5.43;;;;;;;;;;5062456;27;99108;-75
2024/01/25 02:12:10;;;;;;;36.83;5.82;;;;;;;;;;5062277;27;99941;-75
2024/01/25 02:14:36;;;;;;;39.35;4.88;;;;;;;;;;5060779;27;100119;-74
2024/01/25 02:17:03;;;;;;;18.50;4.75;;;;;;;;;;5059940;27;99992;-75
2024/01/25 02:19:29;;;;;;;22.30;4.60;;;;;;;;;;5059487;27;99521;-75
2024/01/25 02:21:57;;;;;;;38.80;6.20;;;;;;;;;;5059477;27;100072;-76
2024/01/25 02:24:24;;;;;;;22.83;4.57;;;;;;;;;;5062204;27;98538;-76
2024/01/25 02:26:50;;;;;;;35.10;5.78;;;;;;;;;;5059787;27;99542;-75
2024/01/25 02:29:17;;;;;;;17.83;4.32;;;;;;;;;;5060278;27;99957;-76
2024/01/25 02:31:44;;;;;;;30.65;4.05;;;;;;;;;;5064682;27;99244;-75
2024/01/25 02:34:10;;;;;;;28.55;5.60;;;;;;;;;;5060696;27;100141;-76
2024/01/25 02:36:37;;;;;;;19.20;5.35;;;;;;;;;;5061782;27;98713;-75
2024/01/25 02:39:04;;;;;;;24.60;5.35;;;;;;;;;;5057578;27;98732;-76
2024/01/25 02:41:31;;;;;;;34.53;5.35;;;;;;;;;;5059940;27;100458;-76
2024/01/25 02:43:58;;;;;;;38.47;5.78;;;;;;;;;;5059074;27;99844;-76
2024/01/25 02:46:24;;;;;;;24.67;3.22;;;;;;;;;;5060674;27;99686;-76
2024/01/25 02:48:51;;;;;;;18.63;3.70;;;;;;;;;;5060138;27;100687;-76
2024/01/25 02:51:17;;;;;;;29.10;5.20;;;;;;;;;;5059830;27;99152;-76
2024/01/25 02:53:44;;;;;;;27.40;4.93;;;;;;;;;;5061860;27;99266;-76
2024/01/25 02:56:10;;;;;;;28.38;5.65;;;;;;;;;;5061171;27;98132;-77
2024/01/25 02:58:37;;;;;;;35.63;6.22;;;;;;;;;;5060517;27;98663;-76
2024/01/25 03:01:03;;;;;;;23.35;4.72;;;;;;;;;;5054470;27;100091;-76
2024/01/25 03:03:30;;;;;;;28.63;4.88;;;;;;;;;;5060148;27;99169;-76
2024/01/25 03:05:56;;;;;;;25.33;4.10;;;;;;;;;;5061585;27;99577;-76
2024/01/25 03:08:23;;;;;;;29.85;6.32;;;;;;;;;;5055736;27;99991;-77
2024/01/25 03:10:49;;;;;;;15.50;3.95;;;;;;;;;;5060265;27;98565;-76
2024/01/25 03:13:16;;;;;;;19.55;4.80;;;;;;;;;;5059006;27;100160;-75
2024/01/25 03:15:43;;;;;;;23.52;5.80;;;;;;;;;;5062124;27;100191;-76
2024/01/25 03:18:11;;;;;;;27.80;5.40;;;;;;;;;;5061224;27;99038;-76
2024/01/25 03:20:37;;;;;;;29.38;4.65;;;;;;;;;;5061561;27;100019;-76
2024/01/25 03:23:04;;;;;;;24.95;4.65;;;;;;;;;;5058242;27;99540;-76
2024/01/25 03:25:31;;;;;;;31.30;5.60;;;;;;;;;;5064377;27;98436;-76
2024/01/25 03:27:58;;;;;;;31.50;4.95;;;;;;;;;;5063116;27;100425;-76
2024/01/25 03:30:24;;;;;;;25.70;4.75;;;;;;;;;;5061113;27;98830;-75
2024/01/25 03:32:50;;;;;;;27.95;6.20;;;;;;;;;;5063156;27;99811;-75
2024/01/25 03:35:17;;;;;;;25.98;4.38;;;;;;;;;;5066156;27;99022;-75
2024/01/25 03:37:44;;;;;;;22.80;6.80;;;;;;;;;;5062863;27;98820;-76
2024/01/25 03:40:10;;;;;;;26.33;4.78;;;;;;;;;;5062849;27;99001;-75
2024/01/25 03:42:37;;;;;;;24.58;4.15;;;;;;;;;;5063288;27;98166;-75
2024/01/25 03:45:03;;;;;;;22.50;4.30;;;;;;;;;;5063636;27;98827;-75
2024/01/25 03:47:30;;;;;;;32.20;5.40;;;;;;;;;;5063425;27;99956;-77
2024/01/25 03:49:56;;;;;;;22.65;4.78;;;;;;;;;;5063028;27;98646;-75
2024/01/25 03:52:23;;;;;;;25.33;5.13;;;;;;;;;;5063446;27;99464;-75
2024/01/25 03:54:50;;;;;;;20.73;4.03;;;;;;;;;;5063693;27;100427;-75
2024/01/25 03:57:16;;;;;;;29.48;5.05;;;;;;;;;;5062773;27;99014;-75
2024/01/25 03:59:43;;;;;;;37.33;6.75;;;;;;;;;;5064254;27;100444;-75
2024/01/25 04:02:10;;;;;;;20.33;3.75;;;;;;;;;;5064766;27;98435;-75
2024/01/25 04:04:37;;;;;;;25.65;5.25;;;;;;;;;;5063062;27;99554;-75
2024/01/25 04:07:04;;;;;;;17.58;4.25;;;;;;;;;;5063983;27;101089;-75
2024/01/25 04:09:30;;;;;;;23.08;4.43;;;;;;;;;;5063852;27;98269;-75
2024/01/25 04:11:57;;;;;;;27.85;4.95;;;;;;;;;;5063342;27;99902;-75
2024/01/25 04:14:23;;;;;;;51.72;8.13;;;;;;;;;;5060850;27;100017;-75
2024/01/25 04:16:50;;;;;;;24.45;4.70;;;;;;;;;;5063439;27;98992;-76
2024/01/25 04:19:16;;;;;;;35.08;5.85;;;;;;;;;;5044495;27;101413;-76
2024/01/25 04:21:43;;;;;;;36.00;4.72;;;;;;;;;;5064007;27;99678;-76
2024/01/25 04:24:09;;;;;;;40.03;6.47;;;;;;;;;;5062720;27;99302;-77
2024/01/25 04:26:36;;;;;;;29.10;5.07;;;;;;;;;;5062152;27;99337;-76
2024/01/25 04:29:02;;;;;;;30.90;5.10;;;;;;;;;;5061485;27;99670;-76
2024/01/25 04:31:29;;;;;;;19.70;4.63;;;;;;;;;;5061491;27;100067;-75
2024/01/25 04:33:55;;;;;;;36.38;5.70;;;;;;;;;;5060371;27;99797;-75
2024/01/25 04:36:22;;;;;;;16.50;4.75;;;;;;;;;;5059679;27;98347;-74
2024/01/25 04:38:48;;;;;;;38.47;5.78;;;;;;;;;;5062337;27;99502;-75
2024/01/25 04:41:15;;;;;;;28.75;5.25;;;;;;;;;;5064607;27;99857;-75
2024/01/25 04:43:41;;;;;;;16.20;4.05;;;;;;;;;;5062011;27;99419;-75
2024/01/25 04:46:08;;;;;;;24.30;4.35;;;;;;;;;;5062977;27;99943;-75
2024/01/25 04:48:35;;;;;;;23.48;4.15;;;;;;;;;;5061492;27;98922;-75
2024/01/25 04:51:02;;;;;;;20.50;5.32;;;;;;;;;;5062312;27;99516;-75
2024/01/25 04:53:28;;;;;;;21.75;4.85;;;;;;;;;;5062574;27;99910;-75
2024/01/25 04:55:55;;;;;;;29.60;4.32;;;;;;;;;;5061330;27;99673;-74
2024/01/25 04:58:22;;;;;;;21.60;4.20;;;;;;;;;;5063383;27;99363;-75
2024/01/25 05:00:50;;;;;;;26.23;5.10;;;;;;;;;;5061112;27;100190;-75
2024/01/25 05:03:17;;;;;;;26.35;5.28;;;;;;;;;;5063781;27;100197;-74
2024/01/25 05:05:43;;;;;;;24.05;4.13;;;;;;;;;;5062465;27;99854;-75
2024/01/25 05:08:10;;;;;;;58.10;7.55;;;;;;;;;;5061168;27;99895;-75
2024/01/25 05:10:36;;;;;;;39.05;6.10;;;;;;;;;;5060468;27;99888;-75
2024/01/25 05:13:03;;;;;;;40.33;4.57;;;;;;;;;;5060573;27;100298;-74
2024/01/25 05:15:29;;;;;;;20.98;4.88;;;;;;;;;;5062066;27;99713;-75
2024/01/25 05:17:56;;;;;;;34.55;5.43;;;;;;;;;;5060824;27;99673;-75
2024/01/25 05:20:23;;;;;;;23.85;4.80;;;;;;;;;;5062646;27;99201;-75
2024/01/25 05:22:49;;;;;;;22.75;4.88;;;;;;;;;;5059778;27;99589;-75
2024/01/25 05:25:16;;;;;;;27.05;4.55;;;;;;;;;;5064754;27;99977;-75
2024/01/25 05:27:43;;;;;;;36.05;6.43;;;;;;;;;;5060072;27;99099;-74
2024/01/25 05:30:10;;;;;;;36.47;5.85;;;;;;;;;;5059489;27;99123;-75
2024/01/25 05:32:36;;;;;;;32.65;4.63;;;;;;;;;;5062485;27;100046;-75
2024/01/25 05:35:04;;;;;;;33.55;5.03;;;;;;;;;;5062511;27;98578;-75
2024/01/25 05:37:31;;;;;;;37.45;4.35;;;;;;;;;;5059028;27;99503;-75
2024/01/25 05:39:57;;;;;;;30.35;6.22;;;;;;;;;;5061331;27;98930;-75
2024/01/25 05:42:24;;;;;;;39.88;6.32;;;;;;;;;;5063472;27;99403;-75
2024/01/25 05:44:51;;;;;;;21.77;4.05;;;;;;;;;;5064869;27;99550;-75
2024/01/25 05:47:17;;;;;;;34.65;6.25;;;;;;;;;;5060691;27;100037;-75
2024/01/25 05:49:44;;;;;;;37.35;5.45;;;;;;;;;;5059700;27;99497;-75
2024/01/25 05:52:11;;;;;;;30.88;6.10;;;;;;;;;;5063949;27;99848;-75
2024/01/25 05:54:37;;;;;;;27.88;6.80;;;;;;;;;;5061857;27;100270;-74
2024/01/25 05:57:04;;;;;;;22.67;5.35;;;;;;;;;;5058080;27;99567;-74
2024/01/25 05:59:30;;;;;;;36.17;6.10;;;;;;;;;;5064115;27;99757;-75
2024/01/25 06:01:57;;;;;;;28.63;5.55;;;;;;;;;;5059132;27;99046;-74
2024/01/25 06:04:23;;;;;;;29.08;4.95;;;;;;;;;;5060339;27;99861;-75
2024/01/25 06:06:50;;;;;;;29.90;5.28;;;;;;;;;;5062540;27;99801;-75
2024/01/25 06:09:17;;;;;;;25.52;6.07;;;;;;;;;;5058517;27;100083;-75
2024/01/25 06:11:46;;;;;;;24.10;4.30;;;;;;;;;;5058945;27;100365;-75
2024/01/25 06:14:13;;;;;;;27.38;5.00;;;;;;;;;;5060764;27;98304;-75
2024/01/25 06:16:40;;;;;;;30.80;5.43;;;;;;;;;;5060499;27;98309;-76
2024/01/25 06:19:07;;;;;;;16.83;5.10;;;;;;;;;;5062443;27;100321;-75
2024/01/25 06:21:35;;;;;;;34.63;6.03;;;;;;;;;;5061251;27;99471;-74
2024/01/25 06:24:02;;;;;;;43.45;6.20;;;;;;;;;;5060054;27;99365;-75
2024/01/25 06:26:28;;;;;;;29.85;5.35;;;;;;;;;;5057972;27;98913;-74
2024/01/25 06:28:55;;;;;;;29.23;6.00;;;;;;;;;;5065325;27;98743;-74
2024/01/25 06:31:21;;;;;;;37.53;6.22;;;;;;;;;;5060222;27;99483;-74
2024/01/25 06:33:50;;;;;;;25.45;4.90;;;;;;;;;;5060721;27;99181;-74
2024/01/25 06:36:17;;;;;;;28.65;5.85;;;;;;;;;;5059626;27;99991;-75
2024/01/25 06:38:44;;;;;;;26.60;5.68;;;;;;;;;;5060621;27;99596;-74
2024/01/25 06:41:10;;;;;;;35.75;7.38;;;;;;;;;;5058868;27;98743;-75
2024/01/25 06:43:37;;;;;;;19.13;5.88;;;;;;;;;;5061538;27;99421;-75
2024/01/25 06:46:03;;;;;;;37.50;6.25;;;;;;;;;;5060644;27;100358;-74
2024/01/25 06:48:30;;;;;;;38.83;6.30;;;;;;;;;;5061527;27;98551;-75
2024/01/25 06:50:56;;;;;;;25.77;5.28;;;;;;;;;;5060931;27;99742;-75
2024/01/25 06:53:23;;;;;;;34.10;5.28;;;;;;;;;;5059343;27;98341;-76
2024/01/25 06:55:49;;;;;;;31.48;5.50;;;;;;;;;;5059779;27;98493;-76
2024/01/25 06:58:16;;;;;;;31.38;5.80;;;;;;;;;;5061540;27;99961;-76
2024/01/25 07:00:44;;;;;;;30.38;5.00;;;;;;;;;;5065638;27;98330;-75
2024/01/25 07:03:12;;;;;;;33.90;6.25;;;;;;;;;;5064402;27;98743;-76
2024/01/25 07:05:39;;;;;;;21.92;4.90;;;;;;;;;;5070727;27;99129;-76
2024/01/25 07:08:08;;;;;;;23.52;5.03;;;;;;;;;;5070393;27;98313;-75
2024/01/25 07:10:35;;;;;;;36.17;6.50;;;;;;;;;;5071140;27;99394;-76
2024/01/25 07:13:01;;;;;;;31.17;5.47;;;;;;;;;;5072851;27;100104;-75
2024/01/25 07:15:28;;;;;;;41.28;6.78;;;;;;;;;;5068951;27;99435;-76
2024/01/25 07:17:55;;;;;;;23.65;5.72;;;;;;;;;;5067227;27;99090;-75
2024/01/25 07:20:21;;;;;;;46.63;6.38;;;;;;;;;;5070274;27;98296;-75
2024/01/25 07:22:49;;;;;;;23.70;6.13;;;;;;;;;;5065215;27;98626;-76
2024/01/25 07:25:16;;;;;;;25.67;5.55;;;;;;;;;;5073242;27;99902;-77
2024/01/25 07:27:46;;;;;;;27.55;6.95;;;;;;;;;;5060890;27;98288;-76
2024/01/25 07:30:13;;;;;;;33.53;6.55;;;;;;;;;;5049040;27;98508;-77
2024/01/25 07:32:42;;;;;;;35.28;6.82;;;;;;;;;;5050528;27;100078;-75
2024/01/25 07:35:12;;;;;;;19.35;5.00;;;;;;;;;;5061754;27;98754;-74
2024/01/25 07:37:39;;;;;;;31.48;6.95;;;;;;;;;;5068107;27;99339;-74
2024/01/25 07:40:06;;;;;;;23.08;6.90;;;;;;;;;;5069276;27;98202;-77
2024/01/25 07:42:33;;;;;;;37.58;6.38;;;;;;;;;;5059461;27;99970;-77
2024/01/25 07:45:00;;;;;;;34.25;7.00;;;;;;;;;;5066292;27;99048;-75
2024/01/25 07:47:26;;;;;;;42.22;7.97;;;;;;;;;;5069571;27;98315;-74
2024/01/25 07:49:53;;;;;;;53.88;7.80;;;;;;;;;;5068370;27;99463;-75
2024/01/25 07:52:19;;;;;;;45.42;7.03;;;;;;;;;;5067608;27;99928;-75
2024/01/25 07:54:46;;;;;;;36.92;7.22;;;;;;;;;;5073909;27;98695;-76
2024/01/25 07:57:13;;;;;;;33.72;7.90;;;;;;;;;;5068412;27;99203;-77
2024/01/25 07:59:39;;;;;;;31.48;6.03;;;;;;;;;;5068942;27;98194;-75
2024/01/25 08:02:06;;;;;;;32.28;7.60;;;;;;;;;;5067974;27;98258;-75
2024/01/25 08:04:32;;;;;;;30.38;7.25;;;;;;;;;;5068521;27;100353;-76
2024/01/25 08:06:59;;;;;;;32.05;7.18;;;;;;;;;;5068731;27;98342;-74
2024/01/25 08:09:25;;;;;;;31.38;6.10;;;;;;;;;;5065265;27;99289;-75
2024/01/25 08:11:52;;;;;;;32.72;8.02;;;;;;;;;;5067079;27;100195;-75
2024/01/25 08:14:19;;;;;;;29.05;6.82;;;;;;;;;;5068723;27;98218;-74
2024/01/25 08:16:45;;;;;;;29.98;8.02;;;;;;;;;;5072007;27;99615;-74
2024/01/25 08:19:12;;;;;;;36.13;7.07;;;;;;;;;;5064993;27;99232;-74
2024/01/25 08:21:39;;;;;;;26.38;6.47;;;;;;;;;;5069348;27;99537;-74
2024/01/25 08:24:05;;;;;;;34.67;7.20;;;;;;;;;;5066255;27;100390;-75
2024/01/25 08:26:32;;;;;;;30.05;7.45;;;;;;;;;;5060904;27;98971;-73
2024/01/25 08:28:58;;;;;;;29.80;7.55;;;;;;;;;;5066864;27;98680;-75
2024/01/25 08:31:24;;;;;;;33.85;8.75;;;;;;;;;;5067192;27;99725;-73
2024/01/25 08:33:51;;;;;;;30.83;7.82;;;;;;;;;;5068042;27;98250;-75
2024/01/25 08:36:20;;;;;;;53.90;10.55;;;;;;;;;;5068006;27;99597;-74
2024/01/25 08:38:47;;;;;;;28.85;9.43;;;;;;;;;;5071175;27;100046;-74
2024/01/25 08:41:15;;;;;;;36.22;9.48;;;;;;;;;;5064589;27;100032;-75
2024/01/25 08:43:42;;;;;;;31.73;10.65;;;;;;;;;;5064858;27;100409;-74
2024/01/25 08:46:08;;;;;;;39.13;11.40;;;;;;;;;;5062979;27;99162;-75
2024/01/25 08:48:35;;;;;;;41.95;13.48;;;;;;;;;;5062980;27;99462;-74
2024/01/25 08:51:02;;;;;;;51.63;12.75;;;;;;;;;;5060870;27;99723;-74
2024/01/25 08:53:28;;;;;;;32.47;9.10;;;;;;;;;;5061118;27;99529;-73
2024/01/25 08:55:55;;;;;;;47.60;11.65;;;;;;;;;;5058029;27;98627;-74
2024/01/25 08:58:22;;;;;;;33.67;10.82;;;;;;;;;;5063675;27;99869;-74
2024/01/25 09:00:48;;;;;;;39.22;10.07;;;;;;;;;;5065861;27;98483;-75
2024/01/25 09:03:15;;;;;;;32.03;9.85;;;;;;;;;;5058935;27;98966;-75
2024/01/25 09:05:44;;;;;;;29.52;9.70;;;;;;;;;;5059749;27;99892;-74
2024/01/25 09:08:12;;;;;;;35.25;9.02;;;;;;;;;;5059790;27;99781;-74
2024/01/25 09:10:40;;;;;;;39.78;11.20;;;;;;;;;;5061884;27;99999;-74
2024/01/25 09:13:06;;;;;;;28.27;9.30;;;;;;;;;;5062571;27;99065;-74
2024/01/25 09:15:33;;;;;;;34.00;7.78;;;;;;;;;;5053894;27;99495;-74
2024/01/25 09:17:59;;;;;;;36.58;8.93;;;;;;;;;;5077437;27;99156;-74
2024/01/25 09:20:26;;;;;;;30.83;6.95;;;;;;;;;;5064913;27;100252;-74
2024/01/25 09:22:55;;;;;;;37.25;8.20;;;;;;;;;;5070732;27;99483;-75
2024/01/25 09:25:22;;;;;;;35.17;6.88;;;;;;;;;;5068229;27;98769;-75
2024/01/25 09:27:48;;;;;;;33.03;7.10;;;;;;;;;;5064848;27;99755;-76
2024/01/25 09:30:16;;;;;;;22.95;6.65;;;;;;;;;;5059871;27;99943;-75
2024/01/25 09:32:42;;;;;;;39.53;6.85;;;;;;;;;;5060916;27;98266;-73
2024/01/25 09:35:09;;;;;;;22.08;6.68;;;;;;;;;;5061130;27;99656;-78
2024/01/25 09:37:36;;;;;;;30.52;7.45;;;;;;;;;;5059559;27;100480;-78
2024/01/25 09:40:03;;;;;;;36.20;6.93;;;;;;;;;;5060399;27;99994;-79
2024/01/25 09:42:31;;;;;;;32.67;6.82;;;;;;;;;;5057280;27;99293;-78
2024/01/25 09:44:57;;;;;;;27.55;6.80;;;;;;;;;;5062386;27;98948;-77
2024/01/25 09:47:24;;;;;;;25.63;6.07;;;;;;;;;;5061565;27;99811;-78
2024/01/25 09:49:51;;;;;;;32.00;6.70;;;;;;;;;;5058602;27;99132;-77
2024/01/25 09:52:19;;;;;;;19.70;6.28;;;;;;;;;;5059748;27;99328;-78
2024/01/25 09:54:46;;;;;;;22.90;5.53;;;;;;;;;;5061079;27;99523;-78
2024/01/25 09:57:14;;;;;;;30.88;6.60;;;;;;;;;;5059128;27;99752;-79
2024/01/25 09:59:41;;;;;;;24.80;5.40;;;;;;;;;;5058727;27;99884;-80
2024/01/25 10:02:08;;;;;;;32.50;5.55;;;;;;;;;;5060093;27;98970;-79
2024/01/25 10:04:35;;;;;;;29.52;6.47;;;;;;;;;;5060579;27;99205;-79
2024/01/25 10:07:01;;;;;;;27.35;5.65;;;;;;;;;;5057787;27;100544;-77
2024/01/25 10:09:28;;;;;;;27.42;5.60;;;;;;;;;;5059541;27;100336;-75
2024/01/25 10:11:54;;;;;;;31.45;5.50;;;;;;;;;;5059497;27;98719;-76
2024/01/25 10:14:41;;;;;;;18.67;5.00;;;;;;;;;;5058180;27;99874;-78
2024/01/25 10:17:07;;;;;;;35.85;6.53;;;;;;;;;;5060698;27;99862;-75
2024/01/25 10:19:34;;;;;;;38.00;7.28;;;;;;;;;;5058440;27;99572;-75
2024/01/25 10:22:01;;;;;;;29.17;6.03;;;;;;;;;;5061252;27;100711;-76
2024/01/25 10:24:30;;;;;;;25.45;6.53;;;;;;;;;;5056742;27;99220;-77
2024/01/25 10:26:57;;;;;;;46.05;6.97;;;;;;;;;;5064181;27;98219;-74
2024/01/25 10:29:25;;;;;;;19.65;6.07;;;;;;;;;;5058351;27;100006;-76
2024/01/25 10:31:52;;;;;;;37.80;7.50;;;;;;;;;;5054678;27;99820;-76
2024/01/25 10:34:20;;;;;;;30.75;6.82;;;;;;;;;;5058102;27;99255;-76
2024/01/25 10:36:46;;;;;;;31.63;5.63;;;;;;;;;;5063300;27;100226;-76
2024/01/25 10:39:14;;;;;;;17.10;4.30;;;;;;;;;;5055898;27;99670;-76
2024/01/25 10:41:41;;;;;;;20.25;5.80;;;;;;;;;;5055462;27;99574;-76
2024/01/25 10:44:08;;;;;;;31.30;5.57;;;;;;;;;;5060344;27;100294;-76
2024/01/25 10:46:36;;;;;;;27.98;5.50;;;;;;;;;;5058336;27;98446;-75
2024/01/25 10:49:03;;;;;;;25.20;6.03;;;;;;;;;;5064582;27;98626;-76
2024/01/25 10:51:30;;;;;;;33.70;5.13;;;;;;;;;;5054494;27;99813;-75
2024/01/25 10:53:58;;;;;;;33.47;5.65;;;;;;;;;;5055412;27;99288;-77
2024/01/25 10:56:25;;;;;;;32.22;7.15;;;;;;;;;;5057019;27;99892;-76
2024/01/25 10:58:51;;;;;;;28.65;6.20;;;;;;;;;;5060305;27;100097;-74
2024/01/25 11:01:18;;;;;;;23.95;5.78;;;;;;;;;;5061472;27;100179;-76
2024/01/25 11:03:47;;;;;;;27.42;6.47;;;;;;;;;;5066378;27;100106;-76
2024/01/25 11:06:15;;;;;;;22.55;6.10;;;;;;;;;;5061271;27;98748;-76
2024/01/25 11:08:42;;;;;;;24.13;6.63;;;;;;;;;;5059147;27;98564;-76
2024/01/25 11:11:10;;;;;;;24.35;5.80;;;;;;;;;;5058505;27;99989;-76
2024/01/25 11:13:40;;;;;;;37.35;5.75;;;;;;;;;;5055623;27;98457;-76
2024/01/25 11:16:14;;;;;;;31.92;4.90;;;;;;;;;;5061413;27;100283;-77
2024/01/25 11:19:10;;;;;;;25.58;5.18;;;;;;;;;;5063999;27;99058;-77
2024/01/25 11:21:47;;;;;;;24.65;4.65;;;;;;;;;;5054164;27;98740;-77
2024/01/25 11:24:19;;;;;;;29.48;5.18;;;;;;;;;;5066352;27;100125;-77
2024/01/25 11:26:46;;;;;;;26.80;5.15;;;;;;;;;;5053830;27;98772;-78
2024/01/25 11:29:16;;;;;;;23.95;5.30;;;;;;;;;;5044929;27;99404;-76
2024/01/25 11:31:46;;;;;;;32.50;5.20;;;;;;;;;;5049578;27;99938;-76
2024/01/25 11:34:15;;;;;;;26.00;5.55;;;;;;;;;;5064347;27;99083;-77
2024/01/25 11:36:42;;;;;;;32.08;7.28;;;;;;;;;;5058878;27;100265;-76
2024/01/25 11:39:09;;;;;;;33.08;5.90;;;;;;;;;;5066965;27;98317;-77
2024/01/25 11:41:36;;;;;;;29.42;5.20;;;;;;;;;;5066107;27;99358;-76
2024/01/25 11:44:05;;;;;;;33.38;6.35;;;;;;;;;;5066198;27;100146;-77
2024/01/25 11:46:32;;;;;;;23.80;5.10;;;;;;;;;;5067558;27;98233;-77
2024/01/25 11:49:03;;;;;;;34.75;6.80;;;;;;;;;;5067110;27;99412;-77
2024/01/25 11:51:30;;;;;;;24.98;6.13;;;;;;;;;;5066254;27;99861;-76
2024/01/25 11:53:57;;;;;;;33.72;6.45;;;;;;;;;;5065213;27;99953;-77
2024/01/25 11:56:26;;;;;;;34.50;5.72;;;;;;;;;;5064506;27;99955;-77
2024/01/25 11:58:53;;;;;;;26.48;6.50;;;;;;;;;;5068442;27;98329;-75
2024/01/25 12:01:20;;;;;;;29.50;6.95;;;;;;;;;;5066769;27;99530;-76
2024/01/25 12:03:47;;;;;;;24.77;5.47;;;;;;;;;;5063541;27;99187;-78
2024/01/25 12:06:13;;;;;;;29.05;6.72;;;;;;;;;;5063399;27;98437;-77
2024/01/25 12:08:40;;;;;;;24.20;5.85;;;;;;;;;;5068036;27;99002;-77
2024/01/25 12:11:08;;;;;;;29.58;5.50;;;;;;;;;;5066504;27;99911;-76
2024/01/25 12:13:41;;;;;;;38.97;6.63;;;;;;;;;;5066209;27;98850;-76
2024/01/25 12:16:11;;;;;;;22.20;5.32;;;;;;;;;;5071546;27;99443;-75
2024/01/25 12:18:38;;;;;;;29.08;5.30;;;;;;;;;;5066276;27;98079;-76
2024/01/25 12:21:05;;;;;;;27.42;6.28;;;;;;;;;;5065858;27;99762;-76
2024/01/25 12:23:36;;;;;;;23.88;5.85;;;;;;;;;;5068104;27;99000;-76
2024/01/25 12:26:06;;;;;;;27.77;5.10;;;;;;;;;;5067136;27;99739;-76
2024/01/25 12:28:33;;;;;;;33.42;6.78;;;;;;;;;;5067896;27;99439;-76
2024/01/25 12:31:00;;;;;;;22.13;6.93;;;;;;;;;;5067966;27;99918;-76
2024/01/25 12:33:27;;;;;;;40.72;7.53;;;;;;;;;;5066256;27;98967;-77
2024/01/25 12:35:55;;;;;;;30.63;7.30;;;;;;;;;;5063567;27;99970;-76
2024/01/25 12:38:22;;;;;;;26.10;5.63;;;;;;;;;;5068257;27;100225;-76
2024/01/25 12:40:49;;;;;;;26.88;6.50;;;;;;;;;;5068161;27;98719;-76
2024/01/25 12:43:15;;;;;;;29.60;5.93;;;;;;;;;;5067397;27;100382;-77
2024/01/25 12:45:42;;;;;;;32.80;7.03;;;;;;;;;;5062782;27;99386;-75
2024/01/25 12:48:09;;;;;;;30.48;6.05;;;;;;;;;;5068531;27;99218;-77
2024/01/25 12:50:35;;;;;;;28.60;5.93;;;;;;;;;;5068346;27;100011;-76
2024/01/25 12:53:02;;;;;;;32.67;6.65;;;;;;;;;;5064233;27;98759;-77
2024/01/25 12:55:29;;;;;;;24.00;6.53;;;;;;;;;;5065930;27;99543;-77
2024/01/25 12:57:59;;;;;;;35.35;7.13;;;;;;;;;;5065419;27;100289;-76
2024/01/25 13:00:25;;;;;;;25.67;6.80;;;;;;;;;;5067691;27;99871;-76
2024/01/25 13:02:54;;;;;;;27.30;6.28;;;;;;;;;;5065236;27;99819;-76
2024/01/25 13:05:20;;;;;;;33.95;7.72;;;;;;;;;;5067558;27;98554;-76
2024/01/25 13:07:47;;;;;;;29.73;5.78;;;;;;;;;;5066664;27;100140;-76
2024/01/25 13:10:14;;;;;;;28.45;7.95;;;;;;;;;;5065773;27;100135;-76
2024/01/25 13:12:42;;;;;;;23.88;6.00;;;;;;;;;;5065461;27;98505;-77
2024/01/25 13:15:09;;;;;;;26.83;6.53;;;;;;;;;;5062118;27;98591;-77
2024/01/25 13:17:36;;;;;;;29.40;7.28;;;;;;;;;;5065714;27;100071;-76
2024/01/25 13:20:05;;;;;;;36.00;7.35;;;;;;;;;;5065265;27;98404;-76
2024/01/25 13:22:33;;;;;;;29.48;7.13;;;;;;;;;;5067085;27;99046;-76
2024/01/25 13:25:00;;;;;;;34.70;7.63;;;;;;;;;;5063151;27;98850;-75
2024/01/25 13:27:27;;;;;;;26.95;6.75;;;;;;;;;;5065345;27;99534;-77
2024/01/25 13:29:53;;;;;;;31.75;7.47;;;;;;;;;;5065558;27;100158;-77
2024/01/25 13:32:20;;;;;;;31.00;7.38;;;;;;;;;;5067763;27;98234;-77
2024/01/25 13:34:47;;;;;;;30.67;7.45;;;;;;;;;;5065359;27;100216;-77
2024/01/25 13:37:13;;;;;;;40.60;8.13;;;;;;;;;;5067153;27;100221;-77
2024/01/25 13:39:40;;;;;;;43.80;8.35;;;;;;;;;;5067325;27;98254;-77
2024/01/25 13:42:06;;;;;;;29.38;6.50;;;;;;;;;;5066940;27;99332;-76
2024/01/25 13:44:33;;;;;;;37.45;9.55;;;;;;;;;;5069824;27;98971;-77
2024/01/25 13:46:59;;;;;;;27.50;7.65;;;;;;;;;;5067356;27;99455;-77
2024/01/25 13:49:26;;;;;;;26.52;7.50;;;;;;;;;;5065884;27;99898;-77
2024/01/25 13:51:52;;;;;;;27.10;7.95;;;;;;;;;;5067353;27;98227;-77
2024/01/25 13:54:18;;;;;;;33.78;8.45;;;;;;;;;;5066783;27;99610;-77
2024/01/25 13:56:45;;;;;;;28.00;8.15;;;;;;;;;;5064786;27;100142;-78
2024/01/25 13:59:11;;;;;;;35.60;8.63;;;;;;;;;;5067104;27;98346;-76
2024/01/25 14:01:38;;;;;;;35.90;8.30;;;;;;;;;;5067200;27;99071;-77
2024/01/25 14:04:05;;;;;;;37.47;8.07;;;;;;;;;;5069359;27;100117;-77
2024/01/25 14:06:32;;;;;;;30.25;7.82;;;;;;;;;;5067752;27;99307;-77
2024/01/25 14:08:58;;;;;;;23.90;7.85;;;;;;;;;;5064521;27;98513;-77
2024/01/25 14:11:26;;;;;;;28.52;8.48;;;;;;;;;;5067292;27;98246;-77
2024/01/25 14:13:52;;;;;;;35.58;7.85;;;;;;;;;;5063279;27;98719;-77
2024/01/25 14:16:20;;;;;;;33.42;9.43;;;;;;;;;;5065303;27;98877;-77
2024/01/25 14:18:49;;;;;;;26.85;8.05;;;;;;;;;;5067052;27;98171;-76
2024/01/25 14:21:20;;;;;;;29.67;8.52;;;;;;;;;;5066513;27;99361;-76
2024/01/25 14:23:47;;;;;;;30.73;7.95;;;;;;;;;;5065932;27;100313;-76